sensor_id;sensor_type;location;lat;lon;timestamp;P1;durP1;ratioP1;P2;durP2;ratioP2
62580;SDS011;48640;48.770;9.148;2022-08-07T00:01:12;2.08;;;0.90;;
62580;SDS011;48640;48.770;9.148;2022-08-07T00:03:39;2.30;;;1.33;;
62580;SDS011;48640;48.770;9.148;2022-08-07T00:06:07;3.92;;;0.90;;
62580;SDS011;48640;48.770;9.148;2022-08-07T00:08:33;1.45;;;0.90;;
62580;SDS011;48640;48.770;9.148;2022-08-07T00:11:01;4.25;;;1.27;;
62580;SDS011;48640;48.770;9.148;2022-08-07T00:13:29;3.08;;;0.90;;
62580;SDS011;48640;48.770;9.148;2022-08-07T00:15:56;5.07;;;1.10;;
62580;SDS011;48640;48.770;9.148;2022-08-07T00:18:27;2.05;;;1.05;;
62580;SDS011;48640;48.770;9.148;2022-08-07T00:20:55;1.85;;;0.88;;
62580;SDS011;48640;48.770;9.148;2022-08-07T00:23:23;5.60;;;1.55;;
62580;SDS011;48640;48.770;9.148;2022-08-07T00:25:51;1.73;;;1.02;;
62580;SDS011;48640;48.770;9.148;2022-08-07T00:28:18;2.08;;;1.05;;
62580;SDS011;48640;48.770;9.148;2022-08-07T00:30:45;1.83;;;1.00;;
62580;SDS011;48640;48.770;9.148;2022-08-07T00:33:12;2.33;;;1.20;;
62580;SDS011;48640;48.770;9.148;2022-08-07T00:35:40;3.15;;;1.30;;
62580;SDS011;48640;48.770;9.148;2022-08-07T00:38:07;3.55;;;1.13;;
62580;SDS011;48640;48.770;9.148;2022-08-07T00:40:34;3.38;;;1.10;;
62580;SDS011;48640;48.770;9.148;2022-08-07T00:43:02;1.90;;;1.00;;
62580;SDS011;48640;48.770;9.148;2022-08-07T00:45:29;2.55;;;1.30;;
62580;SDS011;48640;48.770;9.148;2022-08-07T00:47:56;3.30;;;1.10;;
62580;SDS011;48640;48.770;9.148;2022-08-07T00:50:23;4.03;;;1.50;;
62580;SDS011;48640;48.770;9.148;2022-08-07T00:52:51;2.58;;;1.20;;
62580;SDS011;48640;48.770;9.148;2022-08-07T00:55:18;4.85;;;2.40;;
62580;SDS011;48640;48.770;9.148;2022-08-07T00:57:45;2.72;;;1.30;;
62580;SDS011;48640;48.770;9.148;2022-08-07T01:00:12;3.95;;;1.60;;
62580;SDS011;48640;48.770;9.148;2022-08-07T01:02:40;1.98;;;1.13;;
62580;SDS011;48640;48.770;9.148;2022-08-07T01:05:08;2.67;;;1.38;;
62580;SDS011;48640;48.770;9.148;2022-08-07T01:07:36;2.47;;;1.40;;
62580;SDS011;48640;48.770;9.148;2022-08-07T01:10:04;2.38;;;1.20;;
62580;SDS011;48640;48.770;9.148;2022-08-07T01:12:32;3.13;;;1.60;;
62580;SDS011;48640;48.770;9.148;2022-08-07T01:14:59;2.47;;;1.23;;
62580;SDS011;48640;48.770;9.148;2022-08-07T01:17:26;2.30;;;1.10;;
62580;SDS011;48640;48.770;9.148;2022-08-07T01:19:55;2.08;;;1.10;;
62580;SDS011;48640;48.770;9.148;2022-08-07T01:22:30;2.55;;;1.30;;
62580;SDS011;48640;48.770;9.148;2022-08-07T01:24:57;2.35;;;1.30;;
62580;SDS011;48640;48.770;9.148;2022-08-07T01:27:24;2.70;;;1.25;;
62580;SDS011;48640;48.770;9.148;2022-08-07T01:29:51;3.05;;;1.33;;
62580;SDS011;48640;48.770;9.148;2022-08-07T01:32:18;4.50;;;1.25;;
62580;SDS011;48640;48.770;9.148;2022-08-07T01:34:45;3.58;;;1.27;;
62580;SDS011;48640;48.770;9.148;2022-08-07T01:37:12;4.60;;;1.17;;
62580;SDS011;48640;48.770;9.148;2022-08-07T01:39:42;4.55;;;1.38;;
62580;SDS011;48640;48.770;9.148;2022-08-07T01:42:10;3.13;;;1.30;;
62580;SDS011;48640;48.770;9.148;2022-08-07T01:44:37;3.47;;;1.23;;
62580;SDS011;48640;48.770;9.148;2022-08-07T01:47:05;2.47;;;1.20;;
62580;SDS011;48640;48.770;9.148;2022-08-07T01:49:32;2.35;;;1.20;;
62580;SDS011;48640;48.770;9.148;2022-08-07T01:52:00;2.30;;;1.33;;
62580;SDS011;48640;48.770;9.148;2022-08-07T01:54:30;3.27;;;1.07;;
62580;SDS011;48640;48.770;9.148;2022-08-07T01:57:02;2.60;;;1.25;;
62580;SDS011;48640;48.770;9.148;2022-08-07T01:59:32;2.08;;;1.23;;
62580;SDS011;48640;48.770;9.148;2022-08-07T02:02:06;2.45;;;1.48;;
62580;SDS011;48640;48.770;9.148;2022-08-07T02:04:38;3.80;;;1.40;;
62580;SDS011;48640;48.770;9.148;2022-08-07T02:07:08;1.58;;;1.08;;
62580;SDS011;48640;48.770;9.148;2022-08-07T02:09:36;2.35;;;1.20;;
62580;SDS011;48640;48.770;9.148;2022-08-07T02:12:08;3.00;;;1.17;;
62580;SDS011;48640;48.770;9.148;2022-08-07T02:14:44;5.05;;;1.02;;
62580;SDS011;48640;48.770;9.148;2022-08-07T02:17:14;2.50;;;1.33;;
62580;SDS011;48640;48.770;9.148;2022-08-07T02:19:42;8.60;;;1.77;;
62580;SDS011;48640;48.770;9.148;2022-08-07T02:22:12;1.90;;;1.05;;
62580;SDS011;48640;48.770;9.148;2022-08-07T02:24:44;5.35;;;1.52;;
62580;SDS011;48640;48.770;9.148;2022-08-07T02:27:15;2.30;;;1.00;;
62580;SDS011;48640;48.770;9.148;2022-08-07T02:29:44;3.63;;;1.10;;
62580;SDS011;48640;48.770;9.148;2022-08-07T02:32:13;3.05;;;1.85;;
62580;SDS011;48640;48.770;9.148;2022-08-07T02:34:41;1.67;;;1.00;;
62580;SDS011;48640;48.770;9.148;2022-08-07T02:37:09;2.85;;;1.30;;
62580;SDS011;48640;48.770;9.148;2022-08-07T02:39:38;1.70;;;0.90;;
62580;SDS011;48640;48.770;9.148;2022-08-07T02:42:07;1.98;;;0.95;;
62580;SDS011;48640;48.770;9.148;2022-08-07T02:44:36;3.50;;;1.10;;
62580;SDS011;48640;48.770;9.148;2022-08-07T02:47:06;1.27;;;0.82;;
62580;SDS011;48640;48.770;9.148;2022-08-07T02:49:33;2.55;;;1.52;;
62580;SDS011;48640;48.770;9.148;2022-08-07T02:52:00;1.73;;;1.10;;
62580;SDS011;48640;48.770;9.148;2022-08-07T02:54:29;2.10;;;0.90;;
62580;SDS011;48640;48.770;9.148;2022-08-07T02:56:59;3.33;;;1.20;;
62580;SDS011;48640;48.770;9.148;2022-08-07T02:59:27;2.70;;;1.00;;
62580;SDS011;48640;48.770;9.148;2022-08-07T03:01:57;2.20;;;0.90;;
62580;SDS011;48640;48.770;9.148;2022-08-07T03:04:25;2.90;;;1.20;;
62580;SDS011;48640;48.770;9.148;2022-08-07T03:06:53;2.35;;;1.55;;
62580;SDS011;48640;48.770;9.148;2022-08-07T03:09:20;2.00;;;1.20;;
62580;SDS011;48640;48.770;9.148;2022-08-07T03:11:47;2.10;;;1.17;;
62580;SDS011;48640;48.770;9.148;2022-08-07T03:14:16;1.67;;;0.98;;
62580;SDS011;48640;48.770;9.148;2022-08-07T03:16:43;2.97;;;1.00;;
62580;SDS011;48640;48.770;9.148;2022-08-07T03:19:12;3.17;;;1.42;;
62580;SDS011;48640;48.770;9.148;2022-08-07T03:21:39;2.90;;;1.20;;
62580;SDS011;48640;48.770;9.148;2022-08-07T03:24:05;1.73;;;1.08;;
62580;SDS011;48640;48.770;9.148;2022-08-07T03:26:33;2.22;;;1.02;;
62580;SDS011;48640;48.770;9.148;2022-08-07T03:29:02;1.57;;;0.90;;
62580;SDS011;48640;48.770;9.148;2022-08-07T03:31:32;2.67;;;1.10;;
62580;SDS011;48640;48.770;9.148;2022-08-07T03:34:01;1.80;;;1.00;;
62580;SDS011;48640;48.770;9.148;2022-08-07T03:36:32;2.45;;;1.20;;
62580;SDS011;48640;48.770;9.148;2022-08-07T03:39:01;2.03;;;0.95;;
62580;SDS011;48640;48.770;9.148;2022-08-07T03:41:30;3.15;;;1.17;;
62580;SDS011;48640;48.770;9.148;2022-08-07T03:43:58;2.85;;;1.15;;
62580;SDS011;48640;48.770;9.148;2022-08-07T03:46:26;2.60;;;1.10;;
62580;SDS011;48640;48.770;9.148;2022-08-07T03:48:54;2.78;;;1.27;;
62580;SDS011;48640;48.770;9.148;2022-08-07T03:51:21;2.80;;;1.20;;
62580;SDS011;48640;48.770;9.148;2022-08-07T03:53:49;3.20;;;1.10;;
62580;SDS011;48640;48.770;9.148;2022-08-07T03:56:17;3.55;;;1.17;;
62580;SDS011;48640;48.770;9.148;2022-08-07T03:58:45;2.47;;;1.23;;
62580;SDS011;48640;48.770;9.148;2022-08-07T04:01:13;2.55;;;1.02;;
62580;SDS011;48640;48.770;9.148;2022-08-07T04:03:41;2.13;;;1.00;;
62580;SDS011;48640;48.770;9.148;2022-08-07T04:06:09;2.88;;;1.15;;
62580;SDS011;48640;48.770;9.148;2022-08-07T04:08:37;4.28;;;1.33;;
62580;SDS011;48640;48.770;9.148;2022-08-07T04:11:06;5.85;;;1.20;;
62580;SDS011;48640;48.770;9.148;2022-08-07T04:13:35;3.03;;;1.20;;
62580;SDS011;48640;48.770;9.148;2022-08-07T04:16:02;2.47;;;1.00;;
62580;SDS011;48640;48.770;9.148;2022-08-07T04:18:30;3.08;;;1.13;;
62580;SDS011;48640;48.770;9.148;2022-08-07T04:20:57;1.80;;;1.00;;
62580;SDS011;48640;48.770;9.148;2022-08-07T04:23:24;2.50;;;1.20;;
62580;SDS011;48640;48.770;9.148;2022-08-07T04:25:52;4.13;;;1.10;;
62580;SDS011;48640;48.770;9.148;2022-08-07T04:28:20;1.63;;;1.00;;
62580;SDS011;48640;48.770;9.148;2022-08-07T04:30:48;3.00;;;1.10;;
62580;SDS011;48640;48.770;9.148;2022-08-07T04:33:15;2.85;;;1.00;;
62580;SDS011;48640;48.770;9.148;2022-08-07T04:35:43;2.60;;;1.40;;
62580;SDS011;48640;48.770;9.148;2022-08-07T04:38:11;1.80;;;1.05;;
62580;SDS011;48640;48.770;9.148;2022-08-07T04:40:39;2.25;;;1.10;;
62580;SDS011;48640;48.770;9.148;2022-08-07T04:43:07;1.90;;;0.90;;
62580;SDS011;48640;48.770;9.148;2022-08-07T04:45:40;3.17;;;1.15;;
62580;SDS011;48640;48.770;9.148;2022-08-07T04:48:11;3.05;;;0.90;;
62580;SDS011;48640;48.770;9.148;2022-08-07T04:50:47;2.65;;;1.00;;
62580;SDS011;48640;48.770;9.148;2022-08-07T04:53:23;2.28;;;1.00;;
62580;SDS011;48640;48.770;9.148;2022-08-07T04:55:58;2.70;;;1.20;;
62580;SDS011;48640;48.770;9.148;2022-08-07T04:58:30;2.25;;;0.90;;
62580;SDS011;48640;48.770;9.148;2022-08-07T05:01:05;4.18;;;1.15;;
62580;SDS011;48640;48.770;9.148;2022-08-07T05:03:40;2.22;;;1.13;;
62580;SDS011;48640;48.770;9.148;2022-08-07T05:06:13;1.50;;;1.00;;
62580;SDS011;48640;48.770;9.148;2022-08-07T05:08:45;2.38;;;1.15;;
62580;SDS011;48640;48.770;9.148;2022-08-07T05:11:16;9.95;;;2.28;;
62580;SDS011;48640;48.770;9.148;2022-08-07T05:13:51;2.22;;;1.17;;
62580;SDS011;48640;48.770;9.148;2022-08-07T05:16:22;2.28;;;1.20;;
62580;SDS011;48640;48.770;9.148;2022-08-07T05:18:52;2.67;;;1.20;;
62580;SDS011;48640;48.770;9.148;2022-08-07T05:21:22;3.95;;;1.55;;
62580;SDS011;48640;48.770;9.148;2022-08-07T05:23:54;4.22;;;1.33;;
62580;SDS011;48640;48.770;9.148;2022-08-07T05:26:25;2.67;;;1.30;;
62580;SDS011;48640;48.770;9.148;2022-08-07T05:28:55;2.75;;;1.33;;
62580;SDS011;48640;48.770;9.148;2022-08-07T05:31:25;4.45;;;1.75;;
62580;SDS011;48640;48.770;9.148;2022-08-07T05:33:54;5.93;;;1.50;;
62580;SDS011;48640;48.770;9.148;2022-08-07T05:36:22;3.80;;;1.83;;
62580;SDS011;48640;48.770;9.148;2022-08-07T05:38:50;4.10;;;2.30;;
62580;SDS011;48640;48.770;9.148;2022-08-07T05:41:18;2.63;;;1.65;;
62580;SDS011;48640;48.770;9.148;2022-08-07T05:43:46;2.50;;;1.70;;
62580;SDS011;48640;48.770;9.148;2022-08-07T05:46:16;3.35;;;1.70;;
62580;SDS011;48640;48.770;9.148;2022-08-07T05:48:47;4.47;;;2.00;;
62580;SDS011;48640;48.770;9.148;2022-08-07T05:51:14;2.70;;;1.70;;
62580;SDS011;48640;48.770;9.148;2022-08-07T05:53:42;3.03;;;1.67;;
62580;SDS011;48640;48.770;9.148;2022-08-07T05:56:08;2.67;;;1.42;;
62580;SDS011;48640;48.770;9.148;2022-08-07T05:58:36;7.80;;;2.88;;
62580;SDS011;48640;48.770;9.148;2022-08-07T06:01:05;3.17;;;1.48;;
62580;SDS011;48640;48.770;9.148;2022-08-07T06:03:34;3.15;;;1.92;;
62580;SDS011;48640;48.770;9.148;2022-08-07T06:06:03;3.83;;;2.25;;
62580;SDS011;48640;48.770;9.148;2022-08-07T06:08:33;3.03;;;1.92;;
62580;SDS011;48640;48.770;9.148;2022-08-07T06:11:00;4.15;;;2.05;;
62580;SDS011;48640;48.770;9.148;2022-08-07T06:13:27;2.80;;;1.90;;
62580;SDS011;48640;48.770;9.148;2022-08-07T06:15:54;4.30;;;1.80;;
62580;SDS011;48640;48.770;9.148;2022-08-07T06:18:21;5.50;;;2.00;;
62580;SDS011;48640;48.770;9.148;2022-08-07T06:20:48;3.35;;;2.25;;
62580;SDS011;48640;48.770;9.148;2022-08-07T06:23:18;2.47;;;1.77;;
62580;SDS011;48640;48.770;9.148;2022-08-07T06:25:46;2.53;;;1.70;;
62580;SDS011;48640;48.770;9.148;2022-08-07T06:28:13;3.63;;;2.20;;
62580;SDS011;48640;48.770;9.148;2022-08-07T06:30:39;3.45;;;2.03;;
62580;SDS011;48640;48.770;9.148;2022-08-07T06:33:07;2.85;;;1.88;;
62580;SDS011;48640;48.770;9.148;2022-08-07T06:35:34;3.28;;;2.10;;
62580;SDS011;48640;48.770;9.148;2022-08-07T06:38:01;4.13;;;2.30;;
62580;SDS011;48640;48.770;9.148;2022-08-07T06:40:32;3.13;;;2.20;;
62580;SDS011;48640;48.770;9.148;2022-08-07T06:43:04;3.15;;;2.25;;
62580;SDS011;48640;48.770;9.148;2022-08-07T06:45:34;2.63;;;1.90;;
62580;SDS011;48640;48.770;9.148;2022-08-07T06:48:01;3.20;;;2.03;;
62580;SDS011;48640;48.770;9.148;2022-08-07T06:50:30;3.08;;;2.10;;
62580;SDS011;48640;48.770;9.148;2022-08-07T06:52:59;3.72;;;1.92;;
62580;SDS011;48640;48.770;9.148;2022-08-07T06:55:28;3.20;;;2.05;;
62580;SDS011;48640;48.770;9.148;2022-08-07T06:58:00;3.45;;;1.85;;
62580;SDS011;48640;48.770;9.148;2022-08-07T07:00:30;3.97;;;2.05;;
62580;SDS011;48640;48.770;9.148;2022-08-07T07:02:59;4.28;;;2.10;;
62580;SDS011;48640;48.770;9.148;2022-08-07T07:05:26;3.60;;;2.13;;
62580;SDS011;48640;48.770;9.148;2022-08-07T07:07:53;3.38;;;2.38;;
62580;SDS011;48640;48.770;9.148;2022-08-07T07:10:26;4.32;;;2.67;;
62580;SDS011;48640;48.770;9.148;2022-08-07T07:12:56;2.47;;;1.70;;
62580;SDS011;48640;48.770;9.148;2022-08-07T07:15:29;3.10;;;1.80;;
62580;SDS011;48640;48.770;9.148;2022-08-07T07:18:00;4.47;;;2.15;;
62580;SDS011;48640;48.770;9.148;2022-08-07T07:20:32;3.25;;;2.05;;
62580;SDS011;48640;48.770;9.148;2022-08-07T07:23:00;3.70;;;1.83;;
62580;SDS011;48640;48.770;9.148;2022-08-07T07:25:28;4.25;;;1.90;;
62580;SDS011;48640;48.770;9.148;2022-08-07T07:27:58;2.67;;;1.55;;
62580;SDS011;48640;48.770;9.148;2022-08-07T07:30:28;2.42;;;1.50;;
62580;SDS011;48640;48.770;9.148;2022-08-07T07:32:58;3.42;;;2.45;;
62580;SDS011;48640;48.770;9.148;2022-08-07T07:35:27;2.50;;;1.70;;
62580;SDS011;48640;48.770;9.148;2022-08-07T07:37:57;2.65;;;1.83;;
62580;SDS011;48640;48.770;9.148;2022-08-07T07:40:27;2.90;;;1.40;;
62580;SDS011;48640;48.770;9.148;2022-08-07T07:42:57;5.72;;;1.90;;
62580;SDS011;48640;48.770;9.148;2022-08-07T07:45:27;4.22;;;1.50;;
62580;SDS011;48640;48.770;9.148;2022-08-07T07:47:56;2.60;;;1.48;;
62580;SDS011;48640;48.770;9.148;2022-08-07T07:50:25;2.80;;;1.63;;
62580;SDS011;48640;48.770;9.148;2022-08-07T07:52:53;2.28;;;1.40;;
62580;SDS011;48640;48.770;9.148;2022-08-07T07:55:22;2.90;;;1.58;;
62580;SDS011;48640;48.770;9.148;2022-08-07T07:57:52;2.22;;;1.40;;
62580;SDS011;48640;48.770;9.148;2022-08-07T08:00:22;4.13;;;1.45;;
62580;SDS011;48640;48.770;9.148;2022-08-07T08:02:51;2.38;;;1.08;;
62580;SDS011;48640;48.770;9.148;2022-08-07T08:05:21;2.50;;;1.40;;
62580;SDS011;48640;48.770;9.148;2022-08-07T08:07:49;1.60;;;1.00;;
62580;SDS011;48640;48.770;9.148;2022-08-07T08:10:16;1.63;;;1.02;;
62580;SDS011;48640;48.770;9.148;2022-08-07T08:12:44;2.00;;;0.93;;
62580;SDS011;48640;48.770;9.148;2022-08-07T08:15:13;2.53;;;0.93;;
62580;SDS011;48640;48.770;9.148;2022-08-07T08:17:42;2.92;;;1.00;;
62580;SDS011;48640;48.770;9.148;2022-08-07T08:20:10;1.92;;;0.82;;
62580;SDS011;48640;48.770;9.148;2022-08-07T08:22:39;5.25;;;1.45;;
62580;SDS011;48640;48.770;9.148;2022-08-07T08:25:25;3.85;;;1.00;;
62580;SDS011;48640;48.770;9.148;2022-08-07T08:28:14;1.90;;;0.95;;
62580;SDS011;48640;48.770;9.148;2022-08-07T08:30:44;1.67;;;0.98;;
62580;SDS011;48640;48.770;9.148;2022-08-07T08:33:13;1.67;;;1.00;;
62580;SDS011;48640;48.770;9.148;2022-08-07T08:35:44;1.35;;;0.90;;
62580;SDS011;48640;48.770;9.148;2022-08-07T08:38:14;2.33;;;1.05;;
62580;SDS011;48640;48.770;9.148;2022-08-07T08:40:50;1.55;;;0.80;;
62580;SDS011;48640;48.770;9.148;2022-08-07T08:43:22;3.00;;;1.27;;
62580;SDS011;48640;48.770;9.148;2022-08-07T08:46:00;2.85;;;1.23;;
62580;SDS011;48640;48.770;9.148;2022-08-07T08:48:36;2.25;;;1.20;;
62580;SDS011;48640;48.770;9.148;2022-08-07T08:51:11;1.80;;;0.85;;
62580;SDS011;48640;48.770;9.148;2022-08-07T08:53:43;1.85;;;1.00;;
62580;SDS011;48640;48.770;9.148;2022-08-07T08:56:15;1.52;;;0.77;;
62580;SDS011;48640;48.770;9.148;2022-08-07T08:58:48;2.08;;;0.80;;
62580;SDS011;48640;48.770;9.148;2022-08-07T09:01:19;1.02;;;0.70;;
62580;SDS011;48640;48.770;9.148;2022-08-07T09:03:53;2.28;;;0.88;;
62580;SDS011;48640;48.770;9.148;2022-08-07T09:06:34;1.83;;;0.90;;
62580;SDS011;48640;48.770;9.148;2022-08-07T09:09:06;1.58;;;1.10;;
62580;SDS011;48640;48.770;9.148;2022-08-07T09:11:44;2.72;;;1.10;;
62580;SDS011;48640;48.770;9.148;2022-08-07T09:14:16;1.95;;;0.70;;
62580;SDS011;48640;48.770;9.148;2022-08-07T09:16:56;4.45;;;1.02;;
62580;SDS011;48640;48.770;9.148;2022-08-07T09:19:37;1.50;;;0.70;;
62580;SDS011;48640;48.770;9.148;2022-08-07T09:22:19;1.27;;;0.60;;
62580;SDS011;48640;48.770;9.148;2022-08-07T09:25:02;1.40;;;0.77;;
62580;SDS011;48640;48.770;9.148;2022-08-07T09:27:37;1.55;;;0.80;;
62580;SDS011;48640;48.770;9.148;2022-08-07T09:30:09;3.20;;;0.95;;
62580;SDS011;48640;48.770;9.148;2022-08-07T09:32:48;2.25;;;0.70;;
62580;SDS011;48640;48.770;9.148;2022-08-07T09:35:27;1.45;;;0.75;;
62580;SDS011;48640;48.770;9.148;2022-08-07T09:38:03;3.00;;;1.30;;
62580;SDS011;48640;48.770;9.148;2022-08-07T09:40:41;2.60;;;0.70;;
62580;SDS011;48640;48.770;9.148;2022-08-07T09:43:20;1.63;;;0.82;;
62580;SDS011;48640;48.770;9.148;2022-08-07T09:45:55;2.60;;;1.05;;
62580;SDS011;48640;48.770;9.148;2022-08-07T09:48:32;1.42;;;0.82;;
62580;SDS011;48640;48.770;9.148;2022-08-07T09:51:09;1.58;;;0.80;;
62580;SDS011;48640;48.770;9.148;2022-08-07T09:53:48;1.83;;;0.80;;
62580;SDS011;48640;48.770;9.148;2022-08-07T09:56:28;3.03;;;0.95;;
62580;SDS011;48640;48.770;9.148;2022-08-07T09:59:24;1.10;;;0.65;;
62580;SDS011;48640;48.770;9.148;2022-08-07T10:02:11;0.95;;;0.63;;
62580;SDS011;48640;48.770;9.148;2022-08-07T10:05:28;1.83;;;0.80;;
62580;SDS011;48640;48.770;9.148;2022-08-07T10:08:14;1.15;;;0.50;;
62580;SDS011;48640;48.770;9.148;2022-08-07T10:10:58;1.45;;;0.60;;
62580;SDS011;48640;48.770;9.148;2022-08-07T10:13:38;0.98;;;0.47;;
62580;SDS011;48640;48.770;9.148;2022-08-07T10:16:21;1.17;;;0.55;;
62580;SDS011;48640;48.770;9.148;2022-08-07T10:19:42;1.42;;;0.80;;
62580;SDS011;48640;48.770;9.148;2022-08-07T10:22:21;1.08;;;0.70;;
62580;SDS011;48640;48.770;9.148;2022-08-07T10:25:23;1.67;;;0.70;;
62580;SDS011;48640;48.770;9.148;2022-08-07T10:28:04;1.48;;;0.52;;
62580;SDS011;48640;48.770;9.148;2022-08-07T10:30:49;1.15;;;0.55;;
62580;SDS011;48640;48.770;9.148;2022-08-07T10:33:40;1.33;;;0.40;;
62580;SDS011;48640;48.770;9.148;2022-08-07T10:36:27;3.30;;;0.60;;
62580;SDS011;48640;48.770;9.148;2022-08-07T10:39:14;0.65;;;0.50;;
62580;SDS011;48640;48.770;9.148;2022-08-07T10:41:53;0.95;;;0.50;;
62580;SDS011;48640;48.770;9.148;2022-08-07T10:44:31;1.85;;;0.70;;
62580;SDS011;48640;48.770;9.148;2022-08-07T10:47:09;1.75;;;0.60;;
62580;SDS011;48640;48.770;9.148;2022-08-07T10:49:46;0.77;;;0.57;;
62580;SDS011;48640;48.770;9.148;2022-08-07T10:52:20;2.00;;;0.70;;
62580;SDS011;48640;48.770;9.148;2022-08-07T10:54:58;1.17;;;0.57;;
62580;SDS011;48640;48.770;9.148;2022-08-07T10:57:38;1.05;;;0.70;;
62580;SDS011;48640;48.770;9.148;2022-08-07T11:02:43;2.28;;;0.90;;
62580;SDS011;48640;48.770;9.148;2022-08-07T11:05:18;1.25;;;0.63;;
62580;SDS011;48640;48.770;9.148;2022-08-07T11:07:56;1.52;;;0.60;;
62580;SDS011;48640;48.770;9.148;2022-08-07T11:10:31;0.82;;;0.60;;
62580;SDS011;48640;48.770;9.148;2022-08-07T11:13:08;3.08;;;0.90;;
62580;SDS011;48640;48.770;9.148;2022-08-07T11:15:39;1.42;;;0.80;;
62580;SDS011;48640;48.770;9.148;2022-08-07T11:18:13;1.17;;;0.63;;
62580;SDS011;48640;48.770;9.148;2022-08-07T11:20:47;1.95;;;0.70;;
62580;SDS011;48640;48.770;9.148;2022-08-07T11:23:20;3.47;;;0.75;;
62580;SDS011;48640;48.770;9.148;2022-08-07T11:25:51;1.05;;;0.60;;
62580;SDS011;48640;48.770;9.148;2022-08-07T11:28:29;1.13;;;0.60;;
62580;SDS011;48640;48.770;9.148;2022-08-07T11:31:02;5.47;;;1.17;;
62580;SDS011;48640;48.770;9.148;2022-08-07T11:33:37;1.65;;;0.80;;
62580;SDS011;48640;48.770;9.148;2022-08-07T11:36:12;2.55;;;0.70;;
62580;SDS011;48640;48.770;9.148;2022-08-07T11:38:51;1.85;;;1.05;;
62580;SDS011;48640;48.770;9.148;2022-08-07T11:41:26;3.03;;;0.90;;
62580;SDS011;48640;48.770;9.148;2022-08-07T11:44:00;1.77;;;0.90;;
62580;SDS011;48640;48.770;9.148;2022-08-07T11:46:40;1.42;;;0.70;;
62580;SDS011;48640;48.770;9.148;2022-08-07T11:49:24;1.85;;;1.17;;
62580;SDS011;48640;48.770;9.148;2022-08-07T11:52:23;1.10;;;0.60;;
62580;SDS011;48640;48.770;9.148;2022-08-07T11:55:03;2.53;;;0.80;;
62580;SDS011;48640;48.770;9.148;2022-08-07T11:57:40;1.77;;;0.98;;
62580;SDS011;48640;48.770;9.148;2022-08-07T12:00:12;1.55;;;0.60;;
62580;SDS011;48640;48.770;9.148;2022-08-07T12:03:02;2.67;;;0.98;;
62580;SDS011;48640;48.770;9.148;2022-08-07T12:05:58;1.13;;;0.55;;
62580;SDS011;48640;48.770;9.148;2022-08-07T12:08:42;0.93;;;0.60;;
62580;SDS011;48640;48.770;9.148;2022-08-07T12:11:15;0.95;;;0.60;;
62580;SDS011;48640;48.770;9.148;2022-08-07T12:13:49;2.30;;;0.80;;
62580;SDS011;48640;48.770;9.148;2022-08-07T12:16:24;2.03;;;0.80;;
62580;SDS011;48640;48.770;9.148;2022-08-07T12:18:54;1.48;;;0.80;;
62580;SDS011;48640;48.770;9.148;2022-08-07T12:21:33;1.70;;;0.88;;
62580;SDS011;48640;48.770;9.148;2022-08-07T12:24:03;1.85;;;0.70;;
62580;SDS011;48640;48.770;9.148;2022-08-07T12:26:37;2.40;;;0.95;;
62580;SDS011;48640;48.770;9.148;2022-08-07T12:29:08;1.40;;;0.70;;
62580;SDS011;48640;48.770;9.148;2022-08-07T12:31:42;2.22;;;0.80;;
62580;SDS011;48640;48.770;9.148;2022-08-07T12:34:14;1.73;;;0.85;;
62580;SDS011;48640;48.770;9.148;2022-08-07T12:36:43;1.45;;;0.70;;
62580;SDS011;48640;48.770;9.148;2022-08-07T12:39:11;2.95;;;0.80;;
62580;SDS011;48640;48.770;9.148;2022-08-07T12:41:39;1.15;;;0.68;;
62580;SDS011;48640;48.770;9.148;2022-08-07T12:44:08;1.20;;;0.70;;
62580;SDS011;48640;48.770;9.148;2022-08-07T12:49:18;1.48;;;0.80;;
62580;SDS011;48640;48.770;9.148;2022-08-07T12:52:03;1.27;;;0.70;;
62580;SDS011;48640;48.770;9.148;2022-08-07T12:54:50;2.28;;;0.75;;
62580;SDS011;48640;48.770;9.148;2022-08-07T12:57:24;1.38;;;0.70;;
62580;SDS011;48640;48.770;9.148;2022-08-07T12:59:55;1.20;;;0.75;;
62580;SDS011;48640;48.770;9.148;2022-08-07T13:02:28;2.50;;;0.75;;
62580;SDS011;48640;48.770;9.148;2022-08-07T13:05:08;1.05;;;0.70;;
62580;SDS011;48640;48.770;9.148;2022-08-07T13:10:40;1.50;;;0.90;;
62580;SDS011;48640;48.770;9.148;2022-08-07T13:13:26;2.20;;;0.93;;
62580;SDS011;48640;48.770;9.148;2022-08-07T13:16:19;1.23;;;0.80;;
62580;SDS011;48640;48.770;9.148;2022-08-07T13:18:56;2.13;;;0.70;;
62580;SDS011;48640;48.770;9.148;2022-08-07T13:21:29;1.65;;;0.82;;
62580;SDS011;48640;48.770;9.148;2022-08-07T13:24:00;1.98;;;0.82;;
62580;SDS011;48640;48.770;9.148;2022-08-07T13:26:38;0.93;;;0.60;;
62580;SDS011;48640;48.770;9.148;2022-08-07T13:29:09;2.47;;;0.80;;
62580;SDS011;48640;48.770;9.148;2022-08-07T13:31:40;1.10;;;0.60;;
62580;SDS011;48640;48.770;9.148;2022-08-07T13:34:15;1.63;;;0.80;;
62580;SDS011;48640;48.770;9.148;2022-08-07T13:36:50;5.05;;;1.00;;
62580;SDS011;48640;48.770;9.148;2022-08-07T13:39:25;1.30;;;0.70;;
62580;SDS011;48640;48.770;9.148;2022-08-07T13:41:58;1.45;;;0.88;;
62580;SDS011;48640;48.770;9.148;2022-08-07T13:44:27;1.17;;;0.80;;
62580;SDS011;48640;48.770;9.148;2022-08-07T13:46:58;1.88;;;0.85;;
62580;SDS011;48640;48.770;9.148;2022-08-07T13:49:31;0.95;;;0.80;;
62580;SDS011;48640;48.770;9.148;2022-08-07T13:52:02;1.90;;;0.98;;
62580;SDS011;48640;48.770;9.148;2022-08-07T13:54:30;3.25;;;0.98;;
62580;SDS011;48640;48.770;9.148;2022-08-07T13:57:00;1.40;;;0.70;;
62580;SDS011;48640;48.770;9.148;2022-08-07T13:59:33;1.20;;;0.70;;
62580;SDS011;48640;48.770;9.148;2022-08-07T14:02:03;1.98;;;0.90;;
62580;SDS011;48640;48.770;9.148;2022-08-07T14:04:36;4.05;;;0.90;;
62580;SDS011;48640;48.770;9.148;2022-08-07T14:07:11;1.88;;;0.93;;
62580;SDS011;48640;48.770;9.148;2022-08-07T14:09:39;1.42;;;0.80;;
62580;SDS011;48640;48.770;9.148;2022-08-07T14:12:08;1.48;;;0.85;;
62580;SDS011;48640;48.770;9.148;2022-08-07T14:14:45;0.95;;;0.68;;
62580;SDS011;48640;48.770;9.148;2022-08-07T14:17:21;2.38;;;1.00;;
62580;SDS011;48640;48.770;9.148;2022-08-07T14:19:51;1.10;;;0.80;;
62580;SDS011;48640;48.770;9.148;2022-08-07T14:22:23;2.05;;;0.88;;
62580;SDS011;48640;48.770;9.148;2022-08-07T14:24:53;2.42;;;1.00;;
62580;SDS011;48640;48.770;9.148;2022-08-07T14:27:26;1.30;;;0.70;;
62580;SDS011;48640;48.770;9.148;2022-08-07T14:30:00;2.22;;;1.00;;
62580;SDS011;48640;48.770;9.148;2022-08-07T14:32:29;1.05;;;0.57;;
62580;SDS011;48640;48.770;9.148;2022-08-07T14:35:03;1.92;;;0.90;;
62580;SDS011;48640;48.770;9.148;2022-08-07T14:37:31;2.25;;;0.88;;
62580;SDS011;48640;48.770;9.148;2022-08-07T14:40:00;3.05;;;1.00;;
62580;SDS011;48640;48.770;9.148;2022-08-07T14:42:28;1.05;;;0.77;;
62580;SDS011;48640;48.770;9.148;2022-08-07T14:45:00;2.03;;;0.73;;
62580;SDS011;48640;48.770;9.148;2022-08-07T14:47:30;1.50;;;0.95;;
62580;SDS011;48640;48.770;9.148;2022-08-07T14:49:58;2.83;;;1.00;;
62580;SDS011;48640;48.770;9.148;2022-08-07T14:52:33;2.60;;;1.00;;
62580;SDS011;48640;48.770;9.148;2022-08-07T14:55:02;1.02;;;0.68;;
62580;SDS011;48640;48.770;9.148;2022-08-07T14:57:31;1.40;;;0.85;;
62580;SDS011;48640;48.770;9.148;2022-08-07T14:59:59;1.63;;;1.08;;
62580;SDS011;48640;48.770;9.148;2022-08-07T15:02:28;1.88;;;1.00;;
62580;SDS011;48640;48.770;9.148;2022-08-07T15:04:56;2.72;;;1.00;;
62580;SDS011;48640;48.770;9.148;2022-08-07T15:07:24;2.15;;;1.00;;
62580;SDS011;48640;48.770;9.148;2022-08-07T15:09:54;3.65;;;0.98;;
62580;SDS011;48640;48.770;9.148;2022-08-07T15:12:23;2.80;;;0.70;;
62580;SDS011;48640;48.770;9.148;2022-08-07T15:15:00;1.63;;;0.95;;
62580;SDS011;48640;48.770;9.148;2022-08-07T15:17:31;2.25;;;1.00;;
62580;SDS011;48640;48.770;9.148;2022-08-07T15:20:02;2.33;;;1.10;;
62580;SDS011;48640;48.770;9.148;2022-08-07T15:22:46;1.65;;;0.93;;
62580;SDS011;48640;48.770;9.148;2022-08-07T15:25:17;1.52;;;0.80;;